ADDS METAR Data INFO
IDs: Format: Raw Decoded Include TAF

Data at: 0205 UTC 14 Dec 2017

KLYH 140154Z 21003KT 10SM CLR 01/M11 A2965 RMK AO2 SLP046 T00111106
KLYH 140054Z 18011KT 10SM FEW075 BKN110 02/M11 A2965 RMK AO2 SLP046 T00221106
KLYH 132354Z 19008KT 10SM SCT070 OVC090 02/M11 A2969 RMK AO2 SLP063 T00221111 10028 20006 56020
KLYH 132254Z 19009KT 10SM BKN070 OVC110 01/M12 A2971 RMK AO2 SLP069 T00111117
KLYH 132154Z 20010KT 10SM CLR 02/M12 A2972 RMK AO2 SLP072 T00171117
KLYH 132054Z 22006KT 10SM CLR 03/M13 A2975 RMK AO2 SLP082 T00281128 58024
KLYH 131954Z 24007G17KT 200V280 10SM CLR 02/M13 A2978 RMK AO2 SLP090 T00221133
KLYH 131854Z 26009KT 230V290 10SM CLR 02/M14 A2981 RMK AO2 SLP103 T00221144
KLYH 131754Z 22010G17KT 10SM CLR 01/M17 A2983 RMK AO2 SLP107 T00061167 10006 21072 58021
KLYH 131654Z 23009G15KT 200V260 10SM CLR M01/M17 A2986 RMK AO2 SLP118 T10061167
KLYH 131554Z 24008G15KT 10SM CLR M02/M17 A2989 RMK AO2 SLP129 T10171172
KLYH 131454Z 24010G14KT 10SM CLR M03/M16 A2989 RMK AO2 SLP131 T10281161 50007
KLYH 131354Z 21007KT 10SM CLR M04/M14 A2989 RMK AO2 SLP132 T10441144
KLYH 131254Z 24004KT 10SM CLR M06/M14 A2989 RMK AO2 SLP130 T10611144
KLYH 131154Z 21004KT 10SM CLR M07/M14 A2987 RMK AO2 SLP125 T10721144 11044 21072 53026
KLYH 131054Z AUTO VRB05KT 10SM CLR M06/M15 A2984 RMK AO2 SLP114 T10561150
KLYH 130954Z AUTO 29010G16KT 260V320 10SM CLR M05/M15 A2982 RMK AO2 SLP104 T10501150
KLYH 130854Z AUTO 29009G15KT 260V320 10SM CLR M05/M15 A2979 RMK AO2 SLP095 T10501150 53007
KLYH 130754Z AUTO 30008G19KT 270V330 10SM CLR M05/M16 A2979 RMK AO2 SLP093 T10501156
KLYH 130654Z AUTO 29007KT 260V340 10SM CLR M05/M16 A2978 RMK AO2 SLP088 T10501161
KLYH 130554Z AUTO 00000KT 10SM FEW060 M04/M17 A2977 RMK AO2 SLP087 T10441167 11011 21050 50001
KLYH 130454Z AUTO 26005G16KT 10SM OVC060 M04/M16 A2979 RMK AO2 SLP091 T10391161 400941039
KLYH 130354Z AUTO 30007G15KT 260V350 10SM OVC060 M03/M16 A2977 RMK AO2 SLP087 T10331156
KLYH 130254Z 30011G29KT 260V340 10SM BKN065 M03/M17 A2977 RMK AO2 PK WND 32029/0250 SLP085 T10281167 51015
KLYH 130154Z 30017G29KT 10SM FEW055 M03/M17 A2976 RMK AO2 PK WND 29029/0141 SLP083 T10281172
KLYH 130054Z 30014G28KT 280V350 10SM FEW060 M02/M16 A2974 RMK AO2 PK WND 31028/0052 SLP078 T10171156
KLYH 122354Z 32012G21KT 290V350 10SM SCT060 M01/M12 A2972 RMK AO2 SLP071 T10061122 10078 21006 53033
KLYH 122254Z 31006G15KT 10SM CLR 01/M10 A2969 RMK AO2 PK WND 31026/2205 SLP059 T00061100
KLYH 122154Z 29007KT 10SM FEW060 BKN085 02/M07 A2966 RMK AO2 SLP046 T00221067
KLYH 122054Z 26011G20KT 10SM OVC085 04/M06 A2962 RMK AO2 PK WND 29026/2035 SLP035 T00441056 53011
KLYH 121954Z 27007KT 10SM OVC060 06/M05 A2959 RMK AO2 SLP024 T00561050
KLYH 121854Z 27010G16KT 230V290 10SM SCT055 BKN070 07/M04 A2959 RMK AO2 SLP021 T00721044
KLYH 121754Z VRB06G14KT 10SM SCT047 OVC060 08/M03 A2959 RMK AO2 SLP022 T00781028 10094 20011 56018
KLYH 121654Z 27011G17KT 10SM OVC055 08/M02 A2960 RMK AO2 SLP025 T00781022
KLYH 121554Z 27006KT 10SM BKN065 09/M01 A2963 RMK AO2 SLP035 T00941011
KLYH 121454Z 26003KT 10SM FEW055 FEW120 07/M01 A2964 RMK AO2 SLP041 T00671011 55001